Terminal Aerodrome Forecast
Issued by NWS

Home | Current Version | Previous Version | Text Only | Print | Product List | Glossary On
Versions: 1 2 3 4 5 6 7 8 9 10 11 12 13 14 15 16 17 18
590
FTUS43 KGRR 240314 AAB
TAFJXN
TAF AMD
KJXN 240314Z 2403/2424 20012KT 3SM -SHRA BR VCTS OVC035CB
     FM240700 21013KT 5SM -RA BR OVC030
     FM241400 22015G25KT P6SM OVC035=

USA.gov is the U.S. government's official web portal to all federal, state and local government web resources and services.